createdAt,value
2018-01-02T00:13:39.425Z,81.82
2018-01-02T00:34:14.703Z,81.72
2018-01-02T00:54:52.171Z,82.54
2018-01-02T01:33:30.909Z,82.66
2018-01-02T01:54:06.181Z,83.30
2018-01-02T02:14:40.577Z,85.27
2018-01-02T02:35:14.834Z,85.45
2018-01-02T02:55:50.064Z,86.59
2018-01-02T03:16:22.293Z,88.07
2018-01-02T03:36:58.241Z,88.07
2018-01-02T03:57:35.352Z,88.97
2018-01-02T04:18:07.945Z,87.81
2018-01-02T04:38:44.673Z,88.08
2018-01-02T04:59:19.397Z,87.28
2018-01-02T05:40:55.111Z,85.35
2018-01-02T06:01:29.106Z,84.79
2018-01-02T06:22:08.595Z,85.62
2018-01-02T06:42:40.570Z,86.89
2018-01-02T07:03:14.616Z,85.14
2018-01-02T07:23:48.044Z,84.34
2018-01-02T07:44:23.461Z,85.82
2018-01-02T08:04:56.436Z,87.42
2018-01-02T08:25:28.637Z,82.19
2018-01-02T08:46:01.150Z,84.13
2018-01-02T09:06:36.105Z,85.95
2018-01-02T09:27:09.232Z,86.05
2018-01-02T09:47:44.810Z,84.85
2018-01-02T10:08:17.622Z,85.04
2018-01-02T10:28:49.845Z,80.03
2018-01-02T10:49:23.365Z,78.76
2018-01-02T11:10:00.617Z,78.14
2018-01-02T11:30:36.559Z,76.81
2018-01-02T11:51:12.750Z,74.90
2018-01-02T12:11:47.105Z,74.79
2018-01-02T12:32:28.213Z,72.94
2018-01-02T12:53:01.828Z,72.59
2018-01-02T13:13:33.839Z,75.59
2018-01-02T13:52:09.548Z,75.90
2018-01-02T14:12:44.822Z,74.53
2018-01-02T14:33:16.098Z,75.59
2018-01-02T14:53:52.624Z,76.61
2018-01-02T15:14:23.879Z,78.84
2018-01-02T15:34:58.838Z,80.53
2018-01-02T15:55:34.115Z,81.32
2018-01-02T16:16:15.223Z,82.90
2018-01-02T16:36:46.501Z,83.20
2018-01-02T16:57:19.986Z,84.18
2018-01-02T17:17:53.051Z,83.79
2018-01-02T17:38:25.867Z,83.06
2018-01-02T17:59:01.447Z,83.22
2018-01-02T18:19:38.557Z,83.29
2018-01-02T18:40:13.828Z,84.40
2018-01-02T19:00:52.381Z,85.41
2018-01-02T19:21:29.866Z,86.92
2018-01-02T19:42:09.782Z,87.05
2018-01-02T20:02:44.757Z,88.86
2018-01-02T20:23:20.566Z,89.02
2018-01-02T20:43:55.648Z,89.81
2018-01-02T21:04:28.430Z,89.90
2018-01-02T21:07:19.233Z,90.55
2018-01-02T21:27:51.424Z,90.77
2018-01-02T21:48:29.967Z,90.89
2018-01-02T22:09:05.197Z,90.87
2018-01-02T22:29:39.086Z,91.01
2018-01-02T22:50:12.625Z,91.27
2018-01-02T23:10:45.633Z,91.36
2018-01-02T23:31:18.751Z,91.72
2018-01-02T23:51:53.107Z,92.43
